Time;durP1;ratioP1;P1;durP2;ratioP2;P2;SDS_P1;SDS_P2;PMS_P1;PMS_P2;Temp;Humidity;BMP_temperature;BMP_pressure;BME280_temperature;BME280_humidity;BME280_pressure;Samples;Min_cycle;Max_cycle;Signal;HPM_P1;HPM_P2
2023/11/08 00:01:32;;;;;;;7.23;1.97;;;6.70;90.40;;;5.90;94.41;97919.94;4964229;29;20529;-74
2023/11/08 00:04:02;;;;;;;4.20;2.10;;;6.70;90.40;;;5.94;94.21;97917.75;4963678;28;20466;-73
2023/11/08 00:06:33;;;;;;;3.60;1.70;;;6.80;90.30;;;6.01;93.73;97917.81;4955747;28;20482;-74
2023/11/08 00:09:00;;;;;;;2.03;1.50;;;6.80;90.20;;;6.01;93.26;97921.34;4943511;28;20469;-75
2023/11/08 00:11:27;;;;;;;1.90;1.57;;;6.80;90.20;;;5.98;93.53;97923.53;4944871;28;20582;-75
2023/11/08 00:13:55;;;;;;;3.70;2.33;;;6.80;89.90;;;5.94;93.16;97923.09;4945894;29;20959;-72
2023/11/08 00:16:23;;;;;;;2.40;1.60;;;6.80;89.80;;;6.02;92.89;97923.00;4950369;28;20482;-74
2023/11/08 00:18:50;;;;;;;2.87;1.50;;;6.80;89.70;;;5.82;93.36;97902.13;4949115;28;20449;-73
2023/11/08 00:21:19;;;;;;;2.17;1.37;;;6.80;89.70;;;5.99;93.42;97925.19;4948315;28;20465;-72
2023/11/08 00:23:46;;;;;;;2.40;1.90;;;6.80;89.80;;;5.97;93.76;97928.09;4948194;28;20916;-72
2023/11/08 00:26:13;;;;;;;3.90;1.80;;;6.80;90.00;;;5.98;93.28;97923.53;4946279;28;20457;-71
2023/11/08 00:28:40;;;;;;;5.07;1.70;;;6.80;90.00;;;5.96;92.97;97927.22;4941108;29;20466;-73
2023/11/08 00:31:08;;;;;;;2.40;1.90;;;6.80;89.60;;;6.06;92.94;97926.16;4950198;28;20462;-73
2023/11/08 00:33:36;;;;;;;2.80;1.80;;;6.80;89.80;;;6.07;92.53;97927.81;4947889;28;20556;-72
2023/11/08 00:36:04;;;;;;;3.60;1.70;;;6.80;89.70;;;6.04;92.61;97928.19;4945874;28;20462;-73
2023/11/08 00:38:32;;;;;;;3.03;1.80;;;6.90;89.40;;;6.18;91.33;97932.69;4947210;28;20460;-72
2023/11/08 00:41:00;;;;;;;1.70;1.60;;;6.90;89.10;;;6.08;91.50;97929.47;4948508;28;20450;-71
2023/11/08 00:43:27;;;;;;;2.30;1.90;;;6.90;88.60;;;6.06;91.68;97926.16;4947660;28;20446;-73
2023/11/08 00:45:54;;;;;;;2.90;1.70;;;6.90;88.30;;;6.19;90.79;97931.66;4943777;28;20462;-73
2023/11/08 00:48:23;;;;;;;2.80;1.77;;;6.90;88.30;;;6.19;90.25;97926.31;4948035;28;20455;-72
2023/11/08 00:50:54;;;;;;;2.77;1.50;;;7.00;87.90;;;6.19;89.99;97920.09;4945306;28;20833;-73
2023/11/08 00:53:22;;;;;;;3.23;1.77;;;7.00;88.10;;;6.33;88.79;97931.81;4960154;28;20856;-73
2023/11/08 00:55:51;;;;;;;6.90;2.00;;;7.00;87.50;;;6.20;89.51;97914.56;4941143;28;20493;-73
2023/11/08 00:58:18;;;;;;;2.73;1.67;;;7.00;87.20;;;6.33;88.73;97921.91;4947002;28;20473;-73
2023/11/08 01:00:45;;;;;;;2.67;1.20;;;7.10;86.90;;;6.33;88.21;97921.09;4939668;28;20462;-72
2023/11/08 01:03:12;;;;;;;2.10;1.53;;;7.10;86.60;;;6.30;88.11;97927.66;4943897;28;20459;-74
2023/11/08 01:05:40;;;;;;;5.73;1.70;;;7.10;86.30;;;6.23;87.50;97922.22;4941940;28;20457;-73
2023/11/08 01:08:07;;;;;;;2.60;1.40;;;7.10;86.00;;;6.24;87.12;97902.41;4947175;28;20489;-73
2023/11/08 01:10:34;;;;;;;2.13;1.60;;;7.10;85.80;;;6.37;86.99;97927.72;4943803;28;20458;-75
2023/11/08 01:13:03;;;;;;;3.97;1.60;;;7.20;85.50;;;6.31;86.69;97918.59;4947281;28;20461;-73
2023/11/08 01:15:30;;;;;;;1.63;1.13;;;7.20;85.30;;;6.34;86.72;97920.88;4938167;28;20462;-72
2023/11/08 01:17:58;;;;;;;2.40;1.23;;;7.20;85.20;;;6.40;85.57;97919.28;4947034;28;20505;-73
2023/11/08 01:20:25;;;;;;;2.33;1.23;;;7.20;85.00;;;5.92;85.44;97850.88;4945813;28;20462;-73
2023/11/08 01:22:52;;;;;;;6.67;1.47;;;7.20;84.60;;;6.36;85.87;97915.34;4946822;28;20478;-73
2023/11/08 01:25:20;;;;;;;1.53;0.90;;;7.20;84.70;;;6.46;85.05;97925.75;4941722;28;20548;-74
2023/11/08 01:27:47;;;;;;;2.50;1.40;;;7.20;84.60;;;6.34;84.89;97920.88;4945304;28;20469;-73
2023/11/08 01:30:15;;;;;;;2.27;1.20;;;7.20;84.20;;;6.42;84.96;97922.59;4957321;28;20454;-73
2023/11/08 01:32:43;;;;;;;5.30;1.33;;;7.20;84.30;;;6.33;85.05;97921.09;4945470;28;20474;-73
2023/11/08 01:35:11;;;;;;;2.00;1.20;;;7.20;84.20;;;6.28;85.08;97908.22;4939200;29;20471;-74
2023/11/08 01:37:40;;;;;;;4.73;1.20;;;7.20;84.30;;;6.35;84.55;97935.13;4945665;28;20482;-73
2023/11/08 01:40:10;;;;;;;2.47;1.60;;;7.20;84.20;;;6.36;84.86;97934.13;4947522;28;21291;-73
2023/11/08 01:42:37;;;;;;;2.07;1.37;;;7.10;83.90;;;6.20;85.62;97932.47;4938199;28;20509;-74
2023/11/08 01:45:06;;;;;;;5.73;1.43;;;7.10;84.20;;;6.13;85.83;97939.63;4940781;28;20459;-74
2023/11/08 01:47:35;;;;;;;1.87;1.50;;;7.00;84.30;;;6.06;86.06;97944.94;4945540;28;20465;-74
2023/11/08 01:50:04;;;;;;;2.30;1.80;;;6.90;84.30;;;5.90;86.61;97938.72;4945154;28;20935;-73
2023/11/08 01:52:31;;;;;;;5.37;1.40;;;6.80;84.60;;;5.91;86.88;97944.91;4946781;28;20454;-73
2023/11/08 01:54:58;;;;;;;2.20;1.17;;;6.80;84.60;;;5.76;86.88;97932.38;4940334;28;20461;-73
2023/11/08 01:57:29;;;;;;;2.93;1.37;;;6.70;84.60;;;5.72;87.20;97941.78;4939910;28;20505;-74
2023/11/08 01:59:57;;;;;;;3.00;1.50;;;6.60;84.70;;;5.75;87.78;97935.22;4941107;28;20553;-74
2023/11/08 02:02:25;;;;;;;2.97;1.80;;;6.50;85.10;;;5.73;87.28;97929.22;4947145;28;20464;-73
2023/11/08 02:04:54;;;;;;;2.53;1.20;;;6.50;85.30;;;5.79;87.06;97936.50;4946591;28;20468;-72
2023/11/08 02:07:22;;;;;;;4.47;1.67;;;6.60;85.00;;;5.88;86.40;97927.34;4946402;28;20452;-73
2023/11/08 02:09:50;;;;;;;7.23;2.20;;;6.70;84.60;;;5.96;85.69;97937.97;4952645;28;20545;-73
2023/11/08 02:12:17;;;;;;;3.73;1.40;;;6.80;84.30;;;6.03;85.66;97934.59;4958560;28;20507;-73
2023/11/08 02:15:01;;;;;;;3.47;1.23;;;6.90;84.10;;;6.14;83.75;97939.47;4938707;28;20490;-73
2023/11/08 02:17:29;;;;;;;5.10;1.70;;;7.00;83.60;;;6.13;84.72;97937.78;4946156;28;20477;-73
2023/11/08 02:19:58;;;;;;;2.70;1.53;;;7.00;83.40;;;6.13;83.79;97937.78;4946739;28;20469;-74
2023/11/08 02:22:25;;;;;;;3.23;1.10;;;7.00;83.10;;;6.23;83.70;97941.00;4944237;29;20461;-73
2023/11/08 02:24:54;;;;;;;4.73;1.50;;;7.10;83.10;;;6.31;82.34;97934.69;4945820;28;20458;-73
2023/11/08 02:27:21;;;;;;;5.23;1.60;;;7.10;82.70;;;6.27;82.27;97937.94;4943499;28;20454;-72
2023/11/08 02:29:48;;;;;;;2.40;1.27;;;7.10;82.50;;;6.31;82.51;97939.22;4949391;28;20454;-72
2023/11/08 02:32:15;;;;;;;5.37;1.03;;;7.10;82.40;;;6.29;81.84;97928.69;4950714;28;20517;-73
2023/11/08 02:34:43;;;;;;;4.60;1.50;;;7.10;82.20;;;6.35;81.52;97935.94;4947500;28;20465;-72
2023/11/08 02:37:11;;;;;;;3.60;1.20;;;7.20;82.10;;;6.29;81.27;97934.03;4947842;28;20545;-72
2023/11/08 02:39:38;;;;;;;1.13;1.03;;;7.20;81.90;;;6.09;81.17;97909.66;4948356;28;20525;-72
2023/11/08 02:42:09;;;;;;;1.90;1.13;;;7.10;81.80;;;6.18;81.62;97924.66;4949250;28;20452;-73
2023/11/08 02:44:36;;;;;;;5.07;1.37;;;7.10;81.80;;;6.19;82.03;97936.19;4944607;28;20496;-73
2023/11/08 02:47:03;;;;;;;4.43;1.30;;;7.10;82.00;;;6.20;82.01;97936.00;4950571;28;20476;-73
2023/11/08 02:49:31;;;;;;;2.43;1.30;;;7.00;82.00;;;6.12;81.38;97935.31;4947648;28;20942;-73
2023/11/08 02:51:58;;;;;;;3.47;1.20;;;7.00;81.80;;;6.05;82.14;97941.41;4966124;28;20455;-73
2023/11/08 02:54:27;;;;;;;2.50;1.00;;;6.90;81.90;;;6.02;81.99;97941.78;4950644;28;20460;-74
2023/11/08 02:56:54;;;;;;;2.13;1.00;;;6.90;81.80;;;5.95;82.00;97941.66;4945226;28;20477;-73
2023/11/08 02:59:23;;;;;;;1.40;1.00;;;6.90;81.80;;;6.01;82.05;97937.44;4948347;28;20461;-72
2023/11/08 03:01:50;;;;;;;4.53;1.10;;;6.90;81.90;;;5.96;82.61;97947.88;4947544;28;20469;-74
2023/11/08 03:04:20;;;;;;;1.00;0.97;;;6.80;81.90;;;5.98;83.04;97934.25;4953787;28;20500;-75
2023/11/08 03:06:47;;;;;;;2.10;1.23;;;6.80;82.00;;;5.96;82.31;97943.31;4949716;29;20456;-74
2023/11/08 03:09:14;;;;;;;5.73;1.93;;;6.80;82.10;;;5.92;83.45;97930.50;4948680;28;20870;-72
2023/11/08 03:11:41;;;;;;;3.27;0.90;;;6.80;82.30;;;5.85;84.35;97941.16;4946108;28;20934;-72
2023/11/08 03:14:09;;;;;;;2.63;1.13;;;6.80;82.40;;;5.88;83.85;97937.25;4958414;28;21018;-73
2023/11/08 03:16:37;;;;;;;1.97;1.40;;;6.70;82.60;;;5.72;83.97;97930.25;4948505;28;20511;-74
2023/11/08 03:19:08;;;;;;;1.73;1.00;;;6.60;82.70;;;5.83;84.67;97948.53;4948454;28;20485;-73
2023/11/08 03:21:35;;;;;;;8.53;1.60;;;6.60;82.90;;;5.85;84.62;97951.03;4946800;28;20470;-73
2023/11/08 03:24:04;;;;;;;3.03;1.30;;;6.60;82.90;;;5.84;84.63;97954.72;4957291;28;20472;-71
2023/11/08 03:26:33;;;;;;;2.60;1.23;;;6.60;82.90;;;5.86;85.08;97961.59;4948080;28;20811;-72
2023/11/08 03:29:00;;;;;;;1.40;1.07;;;6.60;83.10;;;5.86;85.04;97958.06;4946706;28;20626;-72
2023/11/08 03:31:29;;;;;;;3.43;1.50;;;6.60;83.20;;;5.82;84.95;97953.06;4946534;28;20458;-72
2023/11/08 03:33:58;;;;;;;1.47;1.27;;;6.70;83.20;;;5.93;84.56;97953.63;4944229;28;20453;-72
2023/11/08 03:36:26;;;;;;;4.53;1.50;;;6.70;83.10;;;5.79;85.20;97958.81;4939794;28;20476;-72
2023/11/08 03:38:53;;;;;;;5.70;1.93;;;6.60;83.30;;;5.64;86.29;97961.47;4943582;28;20822;-72
2023/11/08 03:41:21;;;;;;;2.40;1.63;;;6.60;83.70;;;5.67;85.80;97950.38;4945136;28;20458;-73
2023/11/08 03:43:48;;;;;;;2.03;1.30;;;6.50;83.40;;;5.63;85.90;97959.00;4947936;28;20534;-73
2023/11/08 03:46:16;;;;;;;2.47;1.40;;;6.50;83.60;;;5.65;86.30;97951.59;4957472;28;20465;-72
2023/11/08 03:48:43;;;;;;;7.07;1.63;;;6.50;83.70;;;5.57;86.34;97965.94;4952447;28;20454;-72
2023/11/08 03:51:11;;;;;;;1.73;1.17;;;6.40;83.70;;;5.47;86.58;97957.31;4962666;28;20450;-72
2023/11/08 03:53:38;;;;;;;5.77;1.40;;;6.40;83.40;;;4.94;85.80;97873.31;4965425;28;20454;-73
2023/11/08 03:56:07;;;;;;;3.53;1.30;;;6.50;83.60;;;5.56;86.17;97977.66;4940435;28;20559;-73
2023/11/08 03:58:34;;;;;;;4.40;1.63;;;6.40;83.70;;;5.35;86.11;97955.09;4948415;28;20482;-73
2023/11/08 04:01:03;;;;;;;2.40;1.30;;;6.40;83.50;;;5.43;85.98;97974.78;4946157;28;20480;-74
2023/11/08 04:03:31;;;;;;;2.67;1.50;;;6.30;83.50;;;5.42;86.05;97978.50;4945766;28;21218;-73
2023/11/08 04:05:59;;;;;;;1.67;0.90;;;6.30;83.70;;;5.10;85.40;97939.28;4944817;28;20468;-74
2023/11/08 04:08:27;;;;;;;6.43;1.70;;;6.30;83.20;;;5.47;85.65;97982.28;4964714;28;20446;-74
2023/11/08 04:10:55;;;;;;;3.53;1.40;;;6.30;83.20;;;5.51;84.81;97994.28;4945654;28;20447;-73
2023/11/08 04:13:22;;;;;;;3.00;1.53;;;6.30;83.30;;;5.46;84.96;97987.81;4949629;28;20533;-74
2023/11/08 04:15:49;;;;;;;3.33;1.60;;;6.20;83.30;;;5.36;85.54;97980.06;4945977;28;20459;-73
2023/11/08 04:18:16;;;;;;;2.40;1.17;;;6.30;83.30;;;5.38;85.22;97978.88;4943492;28;21023;-72
2023/11/08 04:20:44;;;;;;;2.93;1.60;;;6.30;83.30;;;5.04;85.04;97918.56;4942678;28;20461;-73
2023/11/08 04:23:11;;;;;;;3.77;1.90;;;6.30;83.20;;;5.42;84.62;97981.16;4942593;28;20561;-73
2023/11/08 04:25:39;;;;;;;5.47;1.50;;;6.20;83.30;;;5.44;84.62;97981.81;4939834;28;20461;-74
2023/11/08 04:28:07;;;;;;;1.57;1.20;;;6.20;83.00;;;4.95;85.25;97917.00;4938214;29;20535;-74
2023/11/08 04:30:34;;;;;;;1.73;1.40;;;6.20;83.00;;;5.42;85.26;97989.22;4943142;29;20863;-74
2023/11/08 04:33:01;;;;;;;3.30;1.70;;;6.20;83.20;;;5.36;84.78;97986.22;4941625;28;20470;-73
2023/11/08 04:35:28;;;;;;;2.00;1.37;;;6.20;83.00;;;5.47;84.26;97992.16;4942876;28;20481;-74
2023/11/08 04:37:56;;;;;;;2.30;1.50;;;6.30;82.90;;;5.59;83.67;97993.38;4958708;28;20916;-74
2023/11/08 04:40:23;;;;;;;3.40;1.70;;;6.40;82.80;;;5.47;84.07;97990.31;4939853;28;20463;-73
2023/11/08 04:42:52;;;;;;;1.80;1.60;;;6.30;82.60;;;5.55;83.56;97993.91;4941662;28;20548;-73
2023/11/08 04:45:20;;;;;;;1.90;1.60;;;6.30;82.50;;;5.50;84.63;97987.28;4938588;29;20500;-73
2023/11/08 04:47:47;;;;;;;1.53;1.27;;;6.30;82.70;;;5.59;84.24;98001.41;4945750;28;20537;-73
2023/11/08 04:50:14;;;;;;;2.50;1.50;;;6.40;82.90;;;5.54;84.75;97995.78;4943116;28;20540;-74
2023/11/08 04:52:41;;;;;;;2.53;0.90;;;6.30;82.70;;;5.55;84.61;97993.91;4938791;28;20985;-73
2023/11/08 04:55:09;;;;;;;4.10;2.00;;;6.30;82.60;;;5.44;84.47;97997.91;4938990;28;20462;-73
2023/11/08 04:57:37;;;;;;;2.70;1.50;;;6.30;82.60;;;5.28;84.81;97986.31;4938611;28;20470;-73
2023/11/08 05:00:08;;;;;;;2.20;1.60;;;6.30;82.70;;;5.27;84.97;97991.84;4940226;28;20477;-74
2023/11/08 05:02:35;;;;;;;4.23;1.53;;;6.20;82.80;;;5.21;85.55;97998.75;4943614;28;20470;-74
2023/11/08 05:05:02;;;;;;;2.80;1.57;;;6.10;82.90;;;5.18;85.92;97993.78;4943871;29;20551;-72
2023/11/08 05:07:31;;;;;;;2.10;1.50;;;6.10;83.10;;;5.10;86.00;97989.31;4943856;28;20454;-72
2023/11/08 05:09:58;;;;;;;1.30;1.10;;;6.10;83.20;;;5.12;85.64;98002.53;4938823;28;20477;-73
2023/11/08 05:12:26;;;;;;;1.90;1.50;;;6.00;83.10;;;5.07;85.98;97995.88;4937036;28;20471;-74
2023/11/08 05:14:53;;;;;;;4.30;1.60;;;5.90;83.40;;;5.01;86.56;98009.97;4940651;28;20461;-73
2023/11/08 05:17:22;;;;;;;3.97;1.83;;;5.90;83.40;;;4.88;87.35;98009.75;4944924;28;20470;-74
2023/11/08 05:19:49;;;;;;;2.47;1.43;;;5.90;83.50;;;4.93;86.82;98002.84;4940172;28;20453;-73
2023/11/08 05:22:16;;;;;;;4.00;2.13;;;5.80;83.70;;;4.92;86.86;98000.34;4944497;29;20791;-73
2023/11/08 05:24:43;;;;;;;2.13;1.33;;;5.80;83.70;;;4.94;87.58;97995.66;4946194;28;20520;-73
2023/11/08 05:27:12;;;;;;;3.73;1.80;;;5.80;83.70;;;4.86;87.55;97996.56;4945412;28;20465;-73
2023/11/08 05:29:39;;;;;;;1.70;1.33;;;5.70;83.80;;;4.89;87.26;97992.66;4955024;28;20488;-73
2023/11/08 05:32:07;;;;;;;4.10;1.50;;;5.70;84.00;;;4.82;87.96;97990.72;4948153;28;20469;-73
2023/11/08 05:34:37;;;;;;;3.40;1.47;;;5.80;84.50;;;5.06;86.96;97999.56;4944948;29;20469;-72
2023/11/08 05:37:06;;;;;;;4.47;1.87;;;5.90;84.10;;;5.16;86.56;97990.44;4958499;28;20476;-75
2023/11/08 05:39:34;;;;;;;2.90;1.67;;;5.90;84.00;;;4.59;85.46;97882.84;4945205;28;20470;-73
2023/11/08 05:42:01;;;;;;;2.13;1.30;;;6.10;83.80;;;5.35;86.19;97999.81;4946168;28;20519;-72
2023/11/08 05:44:28;;;;;;;4.13;1.53;;;6.10;83.60;;;5.38;85.18;97992.25;4936737;28;20461;-73
2023/11/08 05:46:56;;;;;;;2.17;1.60;;;6.20;83.40;;;5.46;85.10;98002.06;4944278;28;20466;-74
2023/11/08 05:49:23;;;;;;;4.77;1.80;;;6.30;83.30;;;5.52;84.23;97989.75;4960549;28;20458;-72
2023/11/08 05:51:52;;;;;;;2.03;1.80;;;6.40;83.10;;;5.59;84.40;97997.91;4945135;28;20454;-73
2023/11/08 05:54:20;;;;;;;1.60;1.20;;;6.50;83.00;;;5.64;85.15;97974.06;4949532;28;20468;-72
2023/11/08 05:56:47;;;;;;;1.90;1.47;;;6.50;83.40;;;5.68;84.50;97994.94;4951191;28;20458;-71
2023/11/08 05:59:15;;;;;;;1.87;1.67;;;6.50;83.10;;;5.64;85.26;97971.38;4949640;29;20549;-72
2023/11/08 06:01:42;;;;;;;2.40;1.77;;;6.50;83.40;;;5.80;85.24;97992.66;4944225;28;20462;-73
2023/11/08 06:04:10;;;;;;;4.70;2.17;;;6.60;83.50;;;5.85;85.13;97994.78;4947762;28;20458;-74
2023/11/08 06:06:37;;;;;;;3.30;1.93;;;6.60;83.50;;;5.85;85.05;98000.13;4948414;28;20978;-73
2023/11/08 06:09:06;;;;;;;3.70;2.00;;;6.70;83.60;;;5.73;85.30;97986.34;4951431;28;20528;-72
2023/11/08 06:11:36;;;;;;;3.23;1.50;;;6.70;83.60;;;5.81;85.29;97999.66;4949667;28;20544;-71
2023/11/08 06:14:03;;;;;;;2.57;1.90;;;6.60;83.60;;;5.81;85.63;98004.19;4942289;29;20833;-72
2023/11/08 06:16:30;;;;;;;3.93;1.90;;;6.70;83.60;;;5.84;85.35;98001.16;4949522;28;21482;-74
2023/11/08 06:18:58;;;;;;;3.27;1.70;;;6.70;83.50;;;5.81;84.96;98012.22;4947650;28;20482;-75
2023/11/08 06:21:25;;;;;;;2.13;1.63;;;6.60;83.40;;;5.91;84.64;98010.13;4948813;28;20503;-78
2023/11/08 06:23:52;;;;;;;4.30;1.57;;;6.70;83.30;;;6.13;84.37;98012.88;4943368;28;20460;-74
2023/11/08 06:26:21;;;;;;;3.57;1.70;;;6.80;83.70;;;6.17;83.40;98011.50;4950185;28;20449;-78
2023/11/08 06:28:48;;;;;;;4.27;1.27;;;6.90;82.90;;;5.99;83.23;97994.94;4949105;29;20454;-75
2023/11/08 06:31:16;;;;;;;2.60;1.80;;;6.90;83.00;;;6.26;83.66;98016.75;4954447;28;20461;-78
2023/11/08 06:33:43;;;;;;;2.47;1.77;;;7.00;83.50;;;6.21;82.73;98011.94;4975650;28;20468;-73
2023/11/08 06:36:11;;;;;;;4.10;1.53;;;7.00;82.60;;;6.14;82.93;98014.59;4966217;28;20485;-74
2023/11/08 06:38:39;;;;;;;4.10;1.70;;;7.00;82.60;;;6.26;83.09;98022.97;4969301;28;20479;-72
2023/11/08 06:41:06;;;;;;;1.90;1.70;;;7.00;82.90;;;6.39;81.92;98022.28;4961205;28;20463;-72
2023/11/08 06:43:35;;;;;;;2.17;1.40;;;7.20;82.70;;;6.02;81.32;97957.06;4968449;29;20477;-75
2023/11/08 06:46:02;;;;;;;2.40;1.17;;;7.20;82.10;;;6.57;82.55;98029.94;4964628;28;20474;-75
2023/11/08 06:48:29;;;;;;;3.60;1.10;;;7.30;83.10;;;6.29;83.14;98011.84;4976679;28;20942;-76
2023/11/08 06:50:56;;;;;;;4.33;1.30;;;7.20;82.50;;;6.20;82.08;98027.22;4949846;28;20469;-80
2023/11/08 06:53:24;;;;;;;6.83;1.30;;;7.20;81.90;;;6.37;82.66;98024.34;4946378;28;20465;-77
2023/11/08 06:55:51;;;;;;;4.03;1.20;;;7.10;82.40;;;6.26;83.32;98028.34;4942029;28;20474;-75
2023/11/08 06:58:18;;;;;;;2.50;1.50;;;7.10;82.10;;;6.35;81.63;98039.81;4949868;29;20465;-77
2023/11/08 07:00:47;;;;;;;5.80;1.70;;;7.20;82.10;;;6.56;82.52;98032.81;4950755;28;20466;-75
2023/11/08 07:03:15;;;;;;;3.90;1.60;;;7.30;82.60;;;6.84;82.64;98045.50;4950864;28;20447;-74
2023/11/08 07:05:42;;;;;;;5.03;1.00;;;7.40;83.00;;;6.81;80.54;98044.00;4965652;28;20538;-81
2023/11/08 07:08:09;;;;;;;7.00;1.77;;;7.50;82.00;;;6.69;82.04;98032.13;4947351;28;20459;-80
2023/11/08 07:10:38;;;;;;;1.83;1.63;;;7.50;82.30;;;6.85;80.42;98047.16;4947714;28;20477;-74
2023/11/08 07:13:05;;;;;;;3.77;1.50;;;7.60;81.80;;;6.42;81.22;98055.97;4949644;28;20458;-79
2023/11/08 07:15:32;;;;;;;2.87;1.47;;;7.40;81.50;;;6.68;81.60;98046.59;4944088;28;20454;-81
2023/11/08 07:18:01;;;;;;;2.73;1.60;;;7.40;82.10;;;6.79;80.73;98049.59;4944367;28;20470;-78
2023/11/08 07:20:28;;;;;;;8.00;1.93;;;7.60;82.30;;;6.77;80.71;98054.34;4951355;28;20530;-72
2023/11/08 07:22:56;;;;;;;4.60;2.23;;;7.50;81.80;;;6.63;80.54;98052.53;4951008;28;21354;-85
2023/11/08 07:25:24;;;;;;;3.40;1.77;;;7.50;81.40;;;6.90;80.54;98059.00;4950563;28;20450;-84
2023/11/08 07:27:51;;;;;;;2.33;1.30;;;7.60;81.80;;;7.19;78.81;98064.44;4954663;28;20485;-83
2023/11/08 07:30:19;;;;;;;3.07;1.40;;;7.80;81.40;;;7.26;78.75;98084.16;4951887;28;20537;-81
2023/11/08 07:32:46;;;;;;;3.53;2.10;;;8.00;81.10;;;7.46;78.36;98080.81;4950741;28;20462;-78
2023/11/08 07:35:15;;;;;;;2.10;1.67;;;8.10;81.20;;;7.51;77.79;98081.06;4949705;28;20456;-84
2023/11/08 07:37:42;;;;;;;3.73;2.10;;;8.20;80.90;;;7.60;78.50;98074.50;4947902;28;20465;-72
2023/11/08 07:40:12;;;;;;;4.33;2.40;;;8.20;81.10;;;7.72;76.98;98072.09;4961248;28;20482;-75
2023/11/08 07:42:39;;;;;;;2.70;1.40;;;8.40;80.50;;;7.64;76.84;98069.59;4971566;28;20477;-76
2023/11/08 07:45:08;;;;;;;3.20;1.33;;;8.40;80.30;;;7.55;78.10;98076.13;4970135;28;20458;-74
2023/11/08 07:47:36;;;;;;;1.93;1.20;;;8.30;80.50;;;7.61;77.42;98078.84;4972386;28;20489;-79
2023/11/08 07:50:05;;;;;;;4.07;1.20;;;8.30;80.30;;;7.57;78.31;98066.84;4956512;28;20462;-83
2023/11/08 07:52:34;;;;;;;3.83;1.67;;;8.30;80.60;;;7.47;77.83;98063.66;4949418;28;20481;-73
2023/11/08 07:55:02;;;;;;;2.47;1.37;;;8.30;80.50;;;7.25;78.62;98063.69;4946455;28;20454;-76
2023/11/08 07:57:29;;;;;;;3.70;1.30;;;8.10;80.60;;;7.29;79.49;98082.94;4952980;28;20462;-83
2023/11/08 07:59:56;;;;;;;2.20;1.60;;;8.00;80.90;;;7.21;78.92;98068.59;4959608;28;20495;-90
2023/11/08 08:02:23;;;;;;;1.83;1.40;;;8.10;80.60;;;7.19;79.23;98072.50;4953298;28;20521;-83
2023/11/08 08:04:51;;;;;;;4.77;1.33;;;8.10;80.80;;;7.16;78.78;98059.44;4960029;28;20463;-84
2023/11/08 08:07:18;;;;;;;1.83;1.40;;;8.10;80.50;;;7.72;77.61;98073.97;4956703;28;20594;-79
2023/11/08 08:09:47;;;;;;;5.57;1.77;;;8.30;80.60;;;7.72;76.81;98073.97;4954515;28;21687;-82
2023/11/08 08:12:14;;;;;;;4.30;1.57;;;8.40;80.30;;;7.87;76.09;98080.09;4956862;28;20458;-80
2023/11/08 08:14:41;;;;;;;2.67;1.60;;;8.50;80.00;;;7.60;77.19;98077.19;4953165;28;20478;-85
2023/11/08 08:17:09;;;;;;;5.17;1.50;;;8.40;80.00;;;7.76;76.26;98075.25;4953790;28;20564;-87
2023/11/08 08:19:36;;;;;;;1.83;1.20;;;8.50;79.70;;;7.67;77.78;98087.19;4953646;28;20490;-86
2023/11/08 08:22:04;;;;;;;1.97;1.30;;;8.40;80.30;;;7.68;76.32;98081.59;4952573;28;21206;-87
2023/11/08 08:24:31;;;;;;;2.33;1.40;;;8.50;79.60;;;7.94;76.42;98094.41;4949401;28;20519;-83
2023/11/08 08:27:00;;;;;;;3.10;1.90;;;8.50;79.80;;;7.68;76.90;98084.28;4959046;28;20574;-76
2023/11/08 08:29:28;;;;;;;4.23;1.50;;;8.50;79.60;;;7.97;75.62;98087.00;4971909;28;20442;-75
2023/11/08 08:31:55;;;;;;;3.73;1.30;;;8.60;79.40;;;7.77;74.49;98017.72;4969744;28;20566;-71
2023/11/08 08:34:23;;;;;;;3.30;1.50;;;8.90;79.30;;;8.21;75.10;98089.19;4969159;28;20437;-70
2023/11/08 08:36:50;;;;;;;4.03;1.70;;;8.90;79.10;;;8.06;74.71;98097.41;4970677;28;20439;-74
2023/11/08 08:39:20;;;;;;;1.87;1.20;;;8.90;78.80;;;8.00;75.51;98100.06;4960969;28;20486;-83
2023/11/08 08:41:48;;;;;;;4.50;1.30;;;8.80;78.90;;;7.96;75.89;98107.69;4948398;28;20839;-85
2023/11/08 08:44:17;;;;;;;3.23;1.37;;;8.70;79.30;;;7.89;74.64;98043.06;4948523;28;20903;-82
2023/11/08 08:46:45;;;;;;;2.60;1.50;;;8.90;79.40;;;8.39;74.51;98095.91;4963060;28;20458;-90
2023/11/08 08:49:13;;;;;;;2.77;1.03;;;9.00;79.10;;;8.58;74.03;98093.56;4947070;28;20514;-87
2023/11/08 08:51:41;;;;;;;2.50;1.10;;;9.10;79.20;;;8.54;73.64;98092.28;4940790;28;20471;-79
2023/11/08 08:54:08;;;;;;;3.83;1.73;;;9.30;78.50;;;8.49;74.52;98090.16;4946626;28;20534;-72
2023/11/08 08:56:35;;;;;;;1.73;1.20;;;9.20;78.90;;;8.66;73.40;98085.28;4963397;28;20490;-83
2023/11/08 08:59:03;;;;;;;1.90;1.30;;;9.30;78.50;;;8.44;73.18;98089.94;4970756;28;20473;-75
2023/11/08 09:01:32;;;;;;;4.80;1.67;;;9.20;78.10;;;8.44;74.40;98088.09;4959988;28;20501;-88
2023/11/08 09:03:59;;;;;;;3.07;1.20;;;9.20;78.50;;;8.59;73.24;98090.66;4931694;29;20463;-87
2023/11/08 09:06:28;;;;;;;2.60;1.30;;;9.30;78.10;;;8.94;72.69;98089.75;4951433;28;20469;-85
2023/11/08 09:08:56;;;;;;;2.47;1.10;;;9.40;78.50;;;8.35;72.29;98019.28;4952371;28;20556;-85
2023/11/08 09:11:24;;;;;;;4.57;1.70;;;9.50;78.00;;;8.88;72.21;98087.88;4953839;28;20447;-84
2023/11/08 09:13:51;;;;;;;3.63;1.20;;;9.60;77.80;;;8.94;72.56;98092.44;4951452;28;20466;-89
2023/11/08 09:16:20;;;;;;;3.47;1.20;;;9.60;77.60;;;8.85;72.60;98088.25;4962336;28;20457;-81
2023/11/08 09:18:48;;;;;;;1.93;1.20;;;9.60;77.70;;;9.06;71.14;98090.81;4951414;28;20566;-88
2023/11/08 09:21:16;;;;;;;7.57;1.33;;;9.80;77.20;;;9.60;70.24;98096.25;4950802;28;20464;-88
2023/11/08 09:23:44;;;;;;;1.90;1.13;;;10.00;76.20;;;9.89;68.71;98094.19;4954325;28;20470;-82
2023/11/08 09:26:12;;;;;;;4.20;1.77;;;10.40;75.70;;;9.71;69.58;98092.13;4953730;28;20460;-85
2023/11/08 09:28:39;;;;;;;5.03;1.60;;;10.50;75.10;;;9.99;67.72;98082.13;4949276;28;20468;-75
2023/11/08 09:31:07;;;;;;;2.80;1.23;;;10.70;74.50;;;10.16;67.72;98087.91;4955745;28;20447;-81
2023/11/08 09:33:35;;;;;;;2.03;1.27;;;10.80;74.80;;;10.27;67.17;98078.34;4958975;28;20486;-87
2023/11/08 09:36:06;;;;;;;2.57;1.53;;;11.00;74.20;;;10.15;67.76;98091.63;4959578;28;20466;-79
2023/11/08 09:38:34;;;;;;;3.43;1.50;;;10.90;74.10;;;10.54;66.64;98091.78;4954045;28;20460;-82
2023/11/08 09:41:01;;;;;;;1.77;0.93;;;11.10;73.70;;;10.39;64.83;98087.44;4946741;28;20493;-78
2023/11/08 09:43:29;;;;;;;2.80;0.83;;;11.20;72.00;;;9.94;65.27;98026.09;4949130;28;20825;-84
2023/11/08 09:45:59;;;;;;;2.23;1.10;;;11.10;71.70;;;10.19;64.69;98104.50;4953134;28;20944;-85
2023/11/08 09:48:26;;;;;;;3.03;0.93;;;11.00;71.30;;;10.52;64.46;98091.16;4943468;28;20810;-83
2023/11/08 09:50:53;;;;;;;1.67;1.00;;;11.20;71.30;;;10.81;63.61;98078.16;4952134;28;20446;-79
2023/11/08 09:53:22;;;;;;;2.37;1.07;;;11.40;71.30;;;10.86;63.77;98078.34;4934049;29;20854;-83
2023/11/08 09:55:52;;;;;;;1.83;0.90;;;11.50;71.20;;;10.28;63.44;98098.91;4945786;28;20479;-84
2023/11/08 09:58:20;;;;;;;2.47;1.30;;;11.30;69.90;;;10.10;63.94;98091.47;4950442;28;20871;-71
2023/11/08 10:00:48;;;;;;;6.90;1.23;;;11.10;69.90;;;10.27;64.87;98099.94;4949343;28;20576;-77
2023/11/08 10:03:17;;;;;;;2.27;0.80;;;11.10;70.30;;;10.05;63.56;98097.47;4946642;28;20514;-74
2023/11/08 10:05:46;;;;;;;2.30;1.27;;;11.10;69.40;;;10.49;63.73;98098.66;4929599;28;20475;-83
2023/11/08 10:08:14;;;;;;;2.50;1.10;;;11.20;69.80;;;10.79;63.72;98091.91;4947643;28;20477;-79
2023/11/08 10:10:45;;;;;;;2.27;1.10;;;11.50;70.20;;;10.86;61.40;98089.16;4950761;28;20479;-77
2023/11/08 10:13:12;;;;;;;4.90;1.00;;;11.60;68.60;;;10.76;63.42;98092.31;4943912;29;20463;-80
2023/11/08 10:15:40;;;;;;;2.67;1.00;;;11.60;69.30;;;10.79;62.15;98085.66;4941509;28;20495;-74
2023/11/08 10:18:08;;;;;;;2.80;1.23;;;11.60;68.50;;;11.03;60.40;98081.38;4949433;28;20538;-84
2023/11/08 10:20:37;;;;;;;2.97;1.00;;;11.70;67.80;;;10.88;60.81;98074.38;4947647;28;20482;-81
2023/11/08 10:23:07;;;;;;;2.27;0.90;;;11.70;67.60;;;10.87;60.81;98072.72;4947573;28;20541;-80
2023/11/08 10:25:34;;;;;;;2.57;1.20;;;11.70;66.90;;;10.87;61.30;98066.50;4938237;28;20982;-83
2023/11/08 10:28:06;;;;;;;3.57;1.33;;;11.70;67.30;;;10.85;61.02;98074.81;4949519;29;20489;-71
2023/11/08 10:30:39;;;;;;;5.13;0.93;;;11.60;67.00;;;10.84;60.75;98066.91;4961288;28;21040;-74
2023/11/08 10:33:10;;;;;;;2.47;0.90;;;11.70;67.00;;;10.94;60.18;98051.06;4965204;28;20466;-72